Time;durP1;ratioP1;P1;durP2;ratioP2;P2;SDS_P1;SDS_P2;PMS_P1;PMS_P2;Temp;Humidity;BMP_temperature;BMP_pressure;BME280_temperature;BME280_humidity;BME280_pressure;Samples;Min_cycle;Max_cycle;Signal;HPM_P1;HPM_P2
2022/11/23 07:06:28;;;;;;;;;7.75;6.25;;;;;9.34;100.00;99483.91;5017964;26;50314;-75
2022/11/23 07:08:56;;;;;;;;;8.50;7.25;;;;;9.46;100.00;99503.22;5012160;28;50982;-75
2022/11/23 07:11:21;;;;;;;;;10.75;8.00;;;;;9.43;100.00;99500.56;5023381;28;49847;-75
2022/11/23 07:13:46;;;;;;;;;9.75;5.25;;;;;9.39;100.00;99492.69;5023052;28;52538;-75
2022/11/23 07:16:12;;;;;;;;;4.75;4.75;;;;;9.42;100.00;99500.56;5023267;28;50008;-75
2022/11/23 07:18:37;;;;;;;;;7.00;6.50;;;;;9.43;100.00;99505.78;5022764;28;58821;-75
2022/11/23 07:21:02;;;;;;;;;6.50;6.50;;;;;9.49;100.00;99517.19;5023356;28;51036;-75
2022/11/23 07:23:28;;;;;;;;;7.75;6.75;;;;;9.36;100.00;99492.66;5023263;28;49740;-75
2022/11/23 07:25:53;;;;;;;;;7.25;7.25;;;;;9.42;100.00;99497.94;5021995;28;49768;-75
2022/11/23 07:28:18;;;;;;;;;9.75;8.25;;;;;9.54;100.00;99515.44;5004525;28;51723;-76
2022/11/23 07:30:44;;;;;;;;;7.00;7.00;;;;;9.57;100.00;99516.38;5022096;28;50252;-75
2022/11/23 07:33:11;;;;;;;;;7.00;7.00;;;;;9.39;100.00;99482.22;5022430;28;49865;-75
2022/11/23 07:35:38;;;;;;;;;7.00;6.25;;;;;9.23;100.00;99454.19;5022555;28;50449;-75
2022/11/23 07:38:06;;;;;;;;;7.00;7.00;;;;;9.35;100.00;99483.03;5022839;28;52668;-75
2022/11/23 07:40:32;;;;;;;;;7.75;4.75;;;;;9.63;100.00;99518.13;5022147;28;50136;-74
2022/11/23 07:42:59;;;;;;;;;10.75;7.50;;;;;9.62;100.00;99514.63;5023386;28;50285;-73
2022/11/23 07:45:24;;;;;;;;;7.00;5.25;;;;;9.66;100.00;99512.91;5023012;28;50878;-74
2022/11/23 07:48:06;;;;;;;;;7.50;7.50;;;;;9.68;100.00;99509.41;5022915;28;51701;-74
2022/11/23 07:50:33;;;;;;;;;9.00;5.00;;;;;9.71;100.00;99514.66;5021628;28;50062;-74
2022/11/23 07:53:00;;;;;;;;;7.50;5.00;;;;;9.72;100.00;99502.44;5023321;28;50005;-74
2022/11/23 07:55:25;;;;;;;;;6.75;5.00;;;;;9.70;100.00;99514.66;5022705;28;49816;-75
2022/11/23 07:57:52;;;;;;;;;4.50;4.50;;;;;8.71;100.00;99344.84;5005165;28;52239;-75
2022/11/23 08:00:19;;;;;;;;;6.50;6.50;;;;;9.68;100.00;99480.59;5023019;28;49674;-75
2022/11/23 08:02:44;;;;;;;;;4.00;4.00;;;;;9.81;100.00;99493.75;5005981;28;50965;-75
2022/11/23 08:05:09;;;;;;;;;8.25;4.00;;;;;9.65;100.00;99459.63;5022472;28;49982;-74
2022/11/23 08:07:35;;;;;;;;;2.25;2.25;;;;;9.90;100.00;99519.97;5021576;28;50617;-74
2022/11/23 08:10:00;;;;;;;;;5.00;5.00;;;;;8.50;100.00;99311.59;5022786;28;50293;-76
2022/11/23 08:12:26;;;;;;;;;4.25;3.00;;;;;9.28;100.00;99435.03;5022352;28;50805;-75
2022/11/23 08:14:51;;;;;;;;;3.00;3.00;;;;;9.77;100.00;99519.06;5023114;28;49765;-74
2022/11/23 08:17:16;;;;;;;;;4.00;2.50;;;;;9.69;100.00;99495.44;5022792;28;49822;-75
2022/11/23 08:19:42;;;;;;;;;3.50;2.00;;;;;9.21;100.00;99409.66;5021065;28;53675;-75
2022/11/23 08:22:07;;;;;;;;;3.25;3.25;;;;;9.22;100.00;99421.00;5023861;28;50079;-75
2022/11/23 08:24:32;;;;;;;;;4.00;2.50;;;;;9.79;100.00;99500.72;5025513;28;49988;-75
2022/11/23 08:26:58;;;;;;;;;5.50;2.00;;;;;9.25;100.00;99414.03;5025004;28;49844;-75
2022/11/23 08:29:23;;;;;;;;;3.50;3.25;;;;;9.09;100.00;99379.06;5026233;28;50753;-76
2022/11/23 08:31:49;;;;;;;;;7.75;4.25;;;;;9.85;100.00;99469.31;5026074;28;50040;-76
2022/11/23 08:34:16;;;;;;;;;3.00;3.00;;;;;9.53;100.00;99395.81;5025603;28;49768;-76
2022/11/23 08:36:42;;;;;;;;;2.00;2.00;;;;;9.47;100.00;99367.88;5025149;28;49935;-77
2022/11/23 08:39:09;;;;;;;;;10.75;4.75;;;;;9.91;100.00;99441.34;5025434;28;49731;-76
2022/11/23 08:41:36;;;;;;;;;5.25;5.25;;;;;10.15;100.00;99463.25;5007215;28;50878;-77
2022/11/23 08:44:02;;;;;;;;;4.75;4.75;;;;;8.84;100.00;99246.34;5025201;28;49773;-77
2022/11/23 08:46:28;;;;;;;;;4.00;4.00;;;;;10.11;100.00;99412.53;5025431;28;50379;-77
2022/11/23 08:48:53;;;;;;;;;4.25;4.00;;;;;9.32;100.00;99290.13;5025831;28;50002;-74
2022/11/23 08:51:21;;;;;;;;;5.00;4.00;;;;;9.41;100.00;99260.47;5025738;28;49967;-75
2022/11/23 08:53:48;;;;;;;;;4.75;4.75;;;;;9.48;100.00;99283.19;5025652;28;49651;-75
2022/11/23 08:56:13;;;;;;;;;4.25;4.25;;;;;9.55;100.00;99311.09;5006830;28;51947;-74
2022/11/23 08:58:39;;;;;;;;;3.25;3.25;;;;;10.19;100.00;99409.94;5024824;28;49828;-72
2022/11/23 09:01:12;;;;;;;;;3.00;3.00;;;;;9.93;100.00;99376.69;5025404;28;50829;-74
2022/11/23 09:03:37;;;;;;;;;10.75;4.25;;;;;9.50;100.00;99312.88;5024293;28;49930;-73
2022/11/23 09:06:03;;;;;;;;;4.00;4.00;;;;;9.81;100.00;99346.97;5025205;28;50167;-73
2022/11/23 09:08:29;;;;;;;;;5.75;4.75;;;;;10.29;100.00;99414.34;5024747;28;49792;-72
2022/11/23 09:11:02;;;;;;;;;4.75;4.75;;;;;10.24;100.00;99392.50;5025057;28;50086;-74
2022/11/23 09:13:28;;;;;;;;;4.75;3.00;;;;;10.24;100.00;99409.09;5025462;28;50276;-71
2022/11/23 09:16:01;;;;;;;;;2.50;2.50;;;;;9.33;100.00;99284.00;5024264;28;50440;-74
2022/11/23 09:18:29;;;;;;;;;3.00;3.00;;;;;8.86;100.00;99198.38;5024968;28;49768;-77
2022/11/23 09:20:55;;;;;;;;;1.75;1.75;;;;;10.11;100.00;99409.91;5006433;28;49824;-71
2022/11/23 09:23:20;;;;;;;;;3.25;3.25;;;;;10.13;100.00;99413.41;5025895;28;50187;-74
2022/11/23 09:25:47;;;;;;;;;3.00;3.00;;;;;9.86;100.00;99369.69;5025104;28;50716;-77
2022/11/23 09:28:13;;;;;;;;;5.50;3.50;;;;;10.07;100.00;99400.31;5024662;28;49781;-72
2022/11/23 09:30:40;;;;;;;;;1.00;1.00;;;;;9.97;100.00;99398.56;5024527;28;50248;-72
2022/11/23 09:33:07;;;;;;;;;3.00;3.00;;;;;10.09;100.00;99409.03;5024817;28;49819;-72
2022/11/23 09:35:32;;;;;;;;;3.00;3.00;;;;;10.10;100.00;99408.16;5023550;28;50222;-74
2022/11/23 09:37:58;;;;;;;;;4.00;3.00;;;;;10.10;100.00;99404.69;5024258;28;50891;-72
2022/11/23 09:40:30;;;;;;;;;2.25;2.25;;;;;9.91;100.00;99399.41;5024663;28;49910;-74
2022/11/23 09:43:23;;;;;;;;;1.00;0.00;;;;;10.07;100.00;99409.94;5031815;28;49802;-73
2022/11/23 09:45:56;;;;;;;;;3.75;3.75;;;;;10.04;100.00;99403.81;5031230;28;50751;-75
2022/11/23 09:48:33;;;;;;;;;2.75;2.75;;;;;9.90;100.00;99376.69;5031184;28;49901;-72
2022/11/23 09:51:20;;;;;;;;;7.50;3.25;;;;;10.10;100.00;99394.19;5031284;28;50144;-75
2022/11/23 09:53:51;;;;;;;;;3.25;2.50;;;;;10.14;100.00;99393.34;5031255;28;49721;-74
2022/11/23 09:56:26;;;;;;;;;2.25;2.25;;;;;10.12;100.00;99390.69;5030855;28;50036;-76
2022/11/23 09:58:55;;;;;;;;;3.50;2.00;;;;;9.97;100.00;99361.84;5031189;28;49720;-73
2022/11/23 10:01:21;;;;;;;;;3.50;3.50;;;;;10.14;100.00;99391.59;5031121;28;49894;-73
2022/11/23 10:03:47;;;;;;;;;3.00;3.00;;;;;10.15;100.00;99398.56;5031237;28;49725;-73
2022/11/23 10:06:33;;;;;;;;;3.50;2.25;;;;;10.08;100.00;99372.34;5030908;28;50428;-74
2022/11/23 10:09:08;;;;;;;;;4.50;3.00;;;;;10.08;100.00;99383.69;5030855;28;49715;-77
2022/11/23 10:12:11;;;;;;;;;2.00;2.00;;;;;10.07;100.00;99381.09;5030976;28;49944;-73
2022/11/23 10:15:03;;;;;;;;;3.50;2.00;;;;;10.01;100.00;99372.31;5030961;28;49650;-73
2022/11/23 10:17:49;;;;;;;;;3.00;3.00;;;;;10.09;100.00;99388.06;5027596;28;50286;-74
2022/11/23 10:20:36;;;;;;;;;5.00;3.50;;;;;10.11;100.00;99403.81;5030662;28;49836;-74
2022/11/23 10:23:21;;;;;;;;;2.75;2.75;;;;;10.09;100.00;99392.44;5030865;28;49711;-73
2022/11/23 10:25:49;;;;;;;;;5.00;2.00;;;;;10.09;100.00;99395.06;5030931;28;49619;-74
2022/11/23 10:28:18;;;;;;;;;3.00;3.00;;;;;9.86;100.00;99380.19;5030794;28;50736;-73
2022/11/23 10:31:01;;;;;;;;;5.00;4.00;;;;;9.92;100.00;99389.78;5030632;28;49579;-73
2022/11/23 10:33:36;;;;;;;;;4.00;4.00;;;;;10.10;100.00;99426.53;5012474;28;49979;-74
2022/11/23 10:36:02;;;;;;;;;4.75;3.00;;;;;9.86;100.00;99393.28;5030789;28;49826;-76
2022/11/23 10:38:27;;;;;;;;;2.25;2.00;;;;;10.16;100.00;99438.78;5030127;28;50065;-77
2022/11/23 10:41:11;;;;;;;;;4.00;2.75;;;;;10.15;100.00;99430.03;5030729;28;50089;-75
2022/11/23 10:44:02;;;;;;;;;3.75;2.75;;;;;10.23;100.00;99425.72;5026308;28;49826;-76
2022/11/23 10:46:30;;;;;;;;;1.25;1.25;;;;;10.25;100.00;99423.97;5030290;28;49881;-74
2022/11/23 10:49:13;;;;;;;;;6.25;2.00;;;;;9.82;100.00;99344.34;5030028;28;49866;-77
2022/11/23 10:51:38;;;;;;;;;4.50;3.00;;;;;9.84;100.00;99346.97;5028266;28;50034;-75
2022/11/23 10:54:17;;;;;;;;;3.25;2.50;;;;;10.15;100.00;99390.72;5030338;28;49748;-76
2022/11/23 10:56:48;;;;;;;;;1.00;1.00;;;;;9.94;100.00;99331.28;5025326;28;49958;-77
2022/11/23 10:59:35;;;;;;;;;2.25;2.00;;;;;10.63;100.00;99422.22;5030178;28;50331;-75
2022/11/23 11:02:13;;;;;;;;;3.00;1.00;;;;;10.69;100.00;99430.94;5030190;28;49927;-77
2022/11/23 11:04:39;;;;;;;;;4.00;2.50;;;;;9.75;100.00;99280.59;5029128;28;49792;-80
2022/11/23 11:07:27;;;;;;;;;3.00;3.00;;;;;9.48;100.00;99215.06;5029704;28;49813;-78
2022/11/23 11:10:00;;;;;;;;;2.00;2.00;;;;;9.89;100.00;99279.72;5024181;28;49704;-79
2022/11/23 11:12:28;;;;;;;;;1.00;1.00;;;;;9.97;100.00;99270.09;5029992;28;49994;-79
2022/11/23 11:15:14;;;;;;;;;2.25;2.00;;;;;10.97;100.00;99430.91;5030764;28;50055;-80
2022/11/23 11:17:40;;;;;;;;;1.00;1.00;;;;;10.24;100.00;99298.09;5031511;28;49575;-74
2022/11/23 11:20:26;;;;;;;;;1.75;1.00;;;;;10.97;100.00;99451.91;5032815;28;50754;-88
2022/11/23 11:22:52;;;;;;;;;1.25;1.25;;;;;10.96;100.00;99419.53;5029165;28;49765;-76
2022/11/23 11:25:29;;;;;;;;;4.00;1.00;;;;;10.45;100.00;99331.28;5030801;28;49771;-76
2022/11/23 11:27:56;;;;;;;;;2.00;1.00;;;;;10.52;100.00;99356.63;5034314;28;49678;-79
2022/11/23 11:30:24;;;;;;;;;2.50;2.50;;;;;10.57;100.00;99354.84;5033178;28;49749;-78
2022/11/23 11:33:10;;;;;;;;;3.00;2.25;;;;;11.46;100.00;99473.69;5032365;28;49887;-77
2022/11/23 11:35:41;;;;;;;;;1.00;1.00;;;;;10.46;100.00;99283.16;5015237;28;50067;-74
2022/11/23 11:38:19;;;;;;;;;2.00;2.00;;;;;11.64;100.00;99470.09;5031723;28;49741;-74
2022/11/23 11:40:48;;;;;;;;;1.00;1.00;;;;;11.13;100.00;99391.47;5035480;28;49883;-85
2022/11/23 11:43:35;;;;;;;;;1.00;1.00;;;;;11.84;100.00;99478.81;5015006;28;49985;-80
2022/11/23 11:46:08;;;;;;;;;5.50;4.00;;;;;11.13;100.00;99344.19;5027476;28;49746;-84
2022/11/23 11:48:45;;;;;;;;;1.00;1.00;;;;;10.81;100.00;99273.44;5031627;28;49750;-83
2022/11/23 11:51:22;;;;;;;;;2.00;1.00;;;;;12.24;100.00;99474.19;5032495;28;50874;-83
2022/11/23 11:54:02;;;;;;;;;1.00;1.00;;;;;11.33;100.00;99314.34;5033004;28;49852;-81
2022/11/23 11:56:27;;;;;;;;;1.00;1.00;;;;;12.55;100.00;99488.03;5030211;28;49840;-84
2022/11/23 11:59:03;;;;;;;;;1.00;0.75;;;;;12.56;100.00;99486.28;5031776;28;49837;-75
2022/11/23 12:01:44;;;;;;;;;1.75;0.00;;;;;12.73;100.00;99479.09;5027822;28;50576;-86
2022/11/23 12:04:42;;;;;;;;;2.75;2.00;;;;;13.02;100.00;99493.78;5032994;28;49771;-79
2022/11/23 12:07:17;;;;;;;;;3.00;2.00;;;;;13.11;100.00;99507.72;5020976;28;50098;-81
2022/11/23 12:09:46;;;;;;;;;3.00;2.00;;;;;12.39;100.00;99407.44;5039032;28;49794;-85
2022/11/23 12:12:16;;;;;;;;;3.00;3.00;;;;;12.84;100.00;99443.03;5033016;28;50535;-77
2022/11/23 12:14:42;;;;;;;;;1.75;1.75;;;;;13.18;100.00;99498.88;5033019;28;50004;-77
2022/11/23 12:17:36;;;;;;;;;1.75;1.75;;;;;13.16;100.00;99498.03;5032824;28;49746;-77
2022/11/23 12:20:20;;;;;;;;;1.75;1.75;;;;;13.13;100.00;99502.47;5032965;28;50065;-81
2022/11/23 12:23:15;;;;;;;;;0.50;0.50;;;;;13.11;100.00;99512.13;5015029;28;52752;-76
2022/11/23 12:25:48;;;;;;;;;1.00;1.00;;;;;12.96;100.00;99491.22;5033507;28;49981;-71
2022/11/23 12:28:42;;;;;;;;;1.75;1.75;;;;;13.07;100.00;99516.56;5046581;28;49308;-70
2022/11/23 12:31:23;;;;;;;;;1.50;1.50;;;;;13.05;100.00;99520.09;5050957;28;49199;-70
2022/11/23 12:34:37;;;;;;;;;2.00;1.00;;;;;13.04;100.00;99529.78;5047904;28;49709;-71
2022/11/23 12:37:38;;;;;;;;;1.00;1.00;;;;;12.66;100.00;99484.44;5009566;28;49516;-85
2022/11/23 12:43:27;;;;;;;;;0.00;0.00;;;;;12.45;100.00;99459.13;5211952;22;49647;-74
2022/11/23 12:46:25;;;;;;;;;2.00;2.00;;;;;12.92;100.00;99556.19;5030760;28;52057;-71
2022/11/23 12:49:12;;;;;;;;;2.50;0.50;;;;;12.85;100.00;99539.59;5056499;28;49413;-76
2022/11/23 12:52:07;;;;;;;;;2.00;1.50;;;;;12.42;100.00;99462.66;5059795;28;49563;-81
2022/11/23 12:54:57;;;;;;;;;1.50;1.00;;;;;12.43;100.00;99467.03;5038457;28;51227;-79
2022/11/23 12:57:41;;;;;;;;;0.00;0.00;;;;;12.40;100.00;99472.34;5033509;28;49819;-80
2022/11/23 13:00:44;;;;;;;;;0.00;0.00;;;;;13.05;100.00;99620.22;5021041;28;49915;-88
2022/11/23 13:03:35;;;;;;;;;4.25;3.00;;;;;13.12;100.00;99588.56;5013897;28;50008;-75
2022/11/23 13:06:34;;;;;;;;;0.75;0.25;;;;;13.14;100.00;99605.22;5029523;28;49998;-80
2022/11/23 13:09:29;;;;;;;;;0.50;0.50;;;;;12.75;100.00;99558.09;5024496;28;52056;-80
2022/11/23 13:12:24;;;;;;;;;1.00;1.00;;;;;12.73;100.00;99552.81;5013315;28;50011;-83
2022/11/23 13:15:00;;;;;;;;;1.00;1.00;;;;;13.05;100.00;99625.50;5027912;28;50011;-82
2022/11/23 13:17:51;;;;;;;;;2.25;1.00;;;;;13.05;100.00;99650.06;5034151;28;50122;-80
2022/11/23 13:20:41;;;;;;;;;2.25;1.25;;;;;13.04;100.00;99631.66;5045135;28;50552;-85
2022/11/23 13:23:07;;;;;;;;;1.75;1.00;;;;;12.97;100.00;99633.44;5040936;28;49746;-83
2022/11/23 13:25:32;;;;;;;;;1.00;1.00;;;;;12.96;100.00;99650.13;5033538;28;49944;-86
2022/11/23 13:28:01;;;;;;;;;2.50;2.00;;;;;12.26;100.00;99537.38;5043448;28;51282;-87
2022/11/23 13:30:28;;;;;;;;;1.00;1.00;;;;;12.44;100.00;99573.19;5035737;28;50250;-89
2022/11/23 13:33:21;;;;;;;;;2.50;1.50;;;;;12.37;100.00;99580.28;5020819;28;49703;-76
2022/11/23 13:35:52;;;;;;;;;4.00;2.50;;;;;11.88;100.00;99506.00;5007454;28;50831;-85
2022/11/23 13:38:23;;;;;;;;;2.00;1.25;;;;;12.97;100.00;99674.72;5025413;28;50000;-89
2022/11/23 13:40:48;;;;;;;;;0.50;0.00;;;;;12.71;100.00;99633.59;5033196;28;51910;-93
2022/11/23 13:43:18;;;;;;;;;2.00;1.00;;;;;13.00;100.00;99674.69;5047544;28;49731;-83
2022/11/23 13:46:22;;;;;;;;;1.25;1.25;;;;;11.98;100.00;99518.22;5018095;28;49819;-91
2022/11/23 13:48:52;;;;;;;;;5.75;2.75;;;;;12.16;100.00;99554.97;5047515;28;50059;-91
2022/11/23 13:51:24;;;;;;;;;1.00;1.00;;;;;12.30;100.00;99603.09;5037905;28;51203;-86
2022/11/23 13:53:54;;;;;;;;;3.25;1.00;;;;;11.83;100.00;99505.13;5038293;28;49721;-84
2022/11/23 13:56:28;;;;;;;;;2.75;2.75;;;;;13.04;100.00;99721.22;5031798;28;49765;-81
2022/11/23 13:59:22;;;;;;;;;3.25;2.50;;;;;13.03;100.00;99716.84;5052285;28;49614;-84
2022/11/23 14:02:01;;;;;;;;;1.50;1.00;;;;;13.02;100.00;99723.84;5037347;28;50015;-83
2022/11/23 14:04:29;;;;;;;;;2.75;2.50;;;;;13.01;99.68;99729.13;5033820;28;49750;-84
2022/11/23 14:06:56;;;;;;;;;3.25;2.00;;;;;12.98;97.36;99735.28;5035755;28;50015;-86
2022/11/23 14:09:33;;;;;;;;;1.50;1.00;;;;;12.95;95.26;99747.63;5032467;28;49583;-81
2022/11/23 14:12:05;;;;;;;;;5.50;3.00;;;;;12.89;93.52;99765.19;5038749;28;50770;-80
2022/11/23 14:14:55;;;;;;;;;2.00;0.00;;;;;12.87;94.93;99766.09;5034258;28;49797;-86
2022/11/23 14:17:26;;;;;;;;;1.00;0.75;;;;;12.86;95.19;99770.47;5033589;28;49994;-81
2022/11/23 14:20:10;;;;;;;;;2.50;2.25;;;;;12.82;93.63;99778.38;5036871;28;50126;-90
2022/11/23 14:23:09;;;;;;;;;1.75;1.25;;;;;12.76;93.13;99789.84;5036285;28;49885;-82
2022/11/23 14:26:09;;;;;;;;;1.50;1.25;;;;;12.77;94.60;99795.97;5036214;28;49929;-81
2022/11/23 14:29:17;;;;;;;;;4.00;1.75;;;;;12.79;94.16;99805.63;5035257;28;49753;-81
2022/11/23 14:32:03;;;;;;;;;2.00;2.00;;;;;12.79;93.03;99807.38;5032035;28;50277;-81
2022/11/23 14:35:09;;;;;;;;;0.00;0.00;;;;;12.61;90.23;99795.13;5024869;28;50186;-79
2022/11/23 14:37:59;;;;;;;;;2.00;1.00;;;;;12.80;92.24;99824.94;5042422;28;50214;-80
2022/11/23 14:40:45;;;;;;;;;5.25;2.00;;;;;12.79;92.13;99833.72;5047257;28;49878;-79
2022/11/23 14:43:19;;;;;;;;;3.50;2.00;;;;;12.81;91.62;99837.22;5050405;28;49601;-80
2022/11/23 14:45:46;;;;;;;;;3.00;1.00;;;;;12.83;92.11;99840.72;5050302;28;49913;-79
2022/11/23 14:48:26;;;;;;;;;4.25;0.75;;;;;12.64;90.33;99805.66;5039147;28;49729;-79
2022/11/23 14:51:00;;;;;;;;;5.00;1.00;;;;;12.74;90.89;99846.91;5049031;28;50164;-79
2022/11/23 14:53:40;;;;;;;;;2.25;0.75;;;;;12.73;92.08;99846.88;5036216;28;49793;-79
2022/11/23 14:56:34;;;;;;;;;3.75;1.75;;;;;12.46;92.94;99813.63;5034570;28;50745;-78
2022/11/23 14:59:25;;;;;;;;;2.00;1.00;;;;;12.59;92.33;99847.81;5037408;28;49734;-79
2022/11/23 15:01:55;;;;;;;;;2.00;1.00;;;;;12.52;92.68;99850.44;5034993;28;49865;-80
2022/11/23 15:04:35;;;;;;;;;2.25;2.00;;;;;12.57;93.36;99872.41;5038396;28;50026;-79
2022/11/23 15:07:22;;;;;;;;;6.00;2.75;;;;;12.43;94.80;99868.88;5028790;28;49825;-79
2022/11/23 15:09:54;;;;;;;;;3.00;1.00;;;;;12.49;94.67;99897.84;5044440;28;49901;-81
2022/11/23 15:12:26;;;;;;;;;1.50;1.50;;;;;12.19;94.64;99859.25;5049717;28;49870;-86
2022/11/23 15:14:56;;;;;;;;;1.75;1.75;;;;;12.39;95.68;99902.25;5032142;28;49753;-83
2022/11/23 15:17:22;;;;;;;;;1.00;1.00;;;;;11.78;94.82;99804.00;5046837;28;49888;-84
2022/11/23 15:19:56;;;;;;;;;5.25;3.00;;;;;12.40;95.58;99925.03;5039711;28;49744;-83
2022/11/23 15:22:23;;;;;;;;;2.00;1.00;;;;;12.34;96.82;99932.94;5046842;28;49737;-81
2022/11/23 15:24:49;;;;;;;;;3.50;2.50;;;;;12.35;97.78;99933.81;5037819;28;49883;-81
2022/11/23 15:27:22;;;;;;;;;4.25;2.75;;;;;12.13;97.73;99902.22;5049653;28;50909;-80
2022/11/23 15:29:57;;;;;;;;;1.00;1.00;;;;;12.25;97.45;99944.31;5049770;28;49748;-79
2022/11/23 15:32:26;;;;;;;;;2.25;1.50;;;;;12.24;97.30;99941.69;5035242;28;49784;-82
2022/11/23 15:34:55;;;;;;;;;4.00;2.75;;;;;12.25;98.06;99954.84;5034085;28;49942;-82
2022/11/23 15:37:22;;;;;;;;;5.00;3.75;;;;;12.21;98.63;99934.69;5034119;28;50799;-82
2022/11/23 15:39:50;;;;;;;;;4.75;2.00;;;;;12.32;98.32;99956.63;5036768;28;50089;-81
2022/11/23 15:42:23;;;;;;;;;3.25;2.50;;;;;11.82;98.40;99887.28;5033888;28;49817;-80
2022/11/23 15:44:48;;;;;;;;;2.00;2.00;;;;;12.08;99.10;99940.81;5034223;28;49788;-81
2022/11/23 15:47:29;;;;;;;;;1.00;1.00;;;;;12.32;99.94;99982.06;5033633;28;49713;-80
2022/11/23 15:50:00;;;;;;;;;1.25;1.25;;;;;11.70;100.00;99888.97;5029447;28;49709;-79
2022/11/23 15:52:30;;;;;;;;;4.75;4.75;;;;;12.27;100.00;99981.19;5054599;28;49802;-81
2022/11/23 15:54:56;;;;;;;;;5.50;5.00;;;;;11.75;100.00;99899.50;5047245;28;49832;-80
2022/11/23 15:57:27;;;;;;;;;3.50;3.25;;;;;12.18;100.00;99984.69;5049648;28;50261;-82
2022/11/23 15:59:59;;;;;;;;;4.50;3.00;;;;;12.20;100.00;99992.56;5055150;28;49986;-80
2022/11/23 16:02:27;;;;;;;;;2.50;1.00;;;;;12.15;100.00;100007.47;5034645;28;49752;-81
2022/11/23 16:05:13;;;;;;;;;2.00;2.00;;;;;12.09;100.00;100012.72;5035611;28;50184;-80
2022/11/23 16:07:58;;;;;;;;;1.00;1.00;;;;;12.06;100.00;100016.19;5038671;28;50272;-80
2022/11/23 16:10:27;;;;;;;;;4.50;2.75;;;;;12.01;100.00;100020.59;5039971;28;49713;-72
2022/11/23 16:12:57;;;;;;;;;6.25;4.00;;;;;11.93;100.00;100023.19;5045949;28;49598;-74
2022/11/23 16:15:39;;;;;;;;;7.75;5.75;;;;;11.87;100.00;100031.06;5052757;28;50156;-73
2022/11/23 16:18:24;;;;;;;;;6.75;4.75;;;;;11.74;100.00;100026.59;5028437;28;52044;-80
2022/11/23 16:20:54;;;;;;;;;3.25;2.50;;;;;11.75;100.00;100041.47;5019154;28;49969;-75
2022/11/23 16:23:23;;;;;;;;;4.25;3.75;;;;;11.72;100.00;100044.09;5021731;28;49939;-77
2022/11/23 16:26:01;;;;;;;;;3.75;1.50;;;;;11.36;100.00;99992.22;5045430;28;49926;-75
2022/11/23 16:28:35;;;;;;;;;2.50;2.50;;;;;11.61;100.00;100053.69;5042992;28;49744;-76
2022/11/23 16:31:02;;;;;;;;;2.75;2.75;;;;;11.49;100.00;100046.63;5036340;28;49701;-76
2022/11/23 16:33:29;;;;;;;;;3.00;1.50;;;;;11.43;100.00;100047.47;5036412;28;50148;-75
2022/11/23 16:35:54;;;;;;;;;3.25;3.00;;;;;11.34;100.00;100047.41;5026909;28;49949;-76
2022/11/23 16:38:20;;;;;;;;;5.25;3.75;;;;;11.41;100.00;100078.13;5036354;28;49694;-75
2022/11/23 16:40:49;;;;;;;;;4.00;4.00;;;;;11.43;100.00;100086.00;5036815;28;49933;-75
2022/11/23 16:43:16;;;;;;;;;3.75;3.25;;;;;11.38;100.00;100101.72;5043624;28;49891;-75
2022/11/23 16:45:45;;;;;;;;;5.75;4.50;;;;;11.15;100.00;100090.19;5043140;28;50160;-75
2022/11/23 16:48:38;;;;;;;;;3.50;3.50;;;;;11.27;100.00;100107.78;5032740;28;50216;-75
2022/11/23 16:51:04;;;;;;;;;5.00;4.50;;;;;11.23;100.00;100109.50;5014884;28;49784;-75
2022/11/23 16:53:32;;;;;;;;;4.75;4.75;;;;;11.20;100.00;100113.88;5032984;28;50137;-76
2022/11/23 16:56:01;;;;;;;;;5.75;4.00;;;;;11.17;100.00;100118.22;5041728;28;50106;-78
2022/11/23 16:58:30;;;;;;;;;12.75;7.75;;;;;11.01;100.00;100097.09;5051419;28;50608;-76
2022/11/23 17:00:56;;;;;;;;;5.25;5.00;;;;;10.92;100.00;100081.25;5047815;28;50012;-75
2022/11/23 17:03:22;;;;;;;;;8.50;8.50;;;;;10.98;100.00;100103.16;5046912;28;51443;-77
2022/11/23 17:05:48;;;;;;;;;4.00;2.00;;;;;11.03;100.00;100129.50;5050154;28;49827;-75
2022/11/23 17:08:13;;;;;;;;;4.00;4.00;;;;;11.09;100.00;100140.91;5038646;28;49744;-77
2022/11/23 17:10:39;;;;;;;;;6.50;6.50;;;;;11.09;100.00;100132.16;5032015;28;60801;-75
2022/11/23 17:13:22;;;;;;;;;9.75;7.50;;;;;10.95;100.00;100112.78;5032530;28;49839;-76
2022/11/23 17:15:49;;;;;;;;;7.75;4.00;;;;;11.08;100.00;100139.16;5032603;28;50185;-76
2022/11/23 17:18:15;;;;;;;;;4.25;4.00;;;;;11.00;100.00;100132.06;5034401;28;50579;-81
2022/11/23 17:20:40;;;;;;;;;3.75;3.75;;;;;10.85;100.00;100111.81;5030158;28;50228;-75
2022/11/23 17:23:06;;;;;;;;;4.50;3.00;;;;;10.96;100.00;100139.06;5044085;28;49897;-77
2022/11/23 17:25:33;;;;;;;;;7.75;5.00;;;;;11.02;100.00;100151.38;5051730;28;49993;-78
2022/11/23 17:28:00;;;;;;;;;8.75;5.00;;;;;11.01;100.00;100160.13;5051346;28;49637;-78
2022/11/23 17:30:27;;;;;;;;;7.00;4.25;;;;;11.00;100.00;100163.59;5036825;28;49705;-73
2022/11/23 17:32:53;;;;;;;;;5.75;5.25;;;;;11.00;100.00;100166.22;5032956;28;49898;-75
2022/11/23 17:35:19;;;;;;;;;4.00;2.00;;;;;10.93;100.00;100156.53;5049980;28;49880;-72
2022/11/23 17:37:45;;;;;;;;;5.00;4.00;;;;;10.91;100.00;100168.78;5029692;28;52861;-74
2022/11/23 17:40:21;;;;;;;;;3.00;3.00;;;;;10.94;100.00;100185.44;5036227;28;49671;-73
2022/11/23 17:42:46;;;;;;;;;9.25;5.50;;;;;10.95;100.00;100192.44;5034925;28;49928;-74
2022/11/23 17:45:12;;;;;;;;;4.50;4.50;;;;;10.82;100.00;100180.94;5043198;28;50035;-77
2022/11/23 17:47:38;;;;;;;;;9.25;4.00;;;;;10.89;100.00;100198.50;5048004;28;49987;-74
2022/11/23 17:50:08;;;;;;;;;5.25;4.25;;;;;10.92;100.00;100207.31;5047265;28;49721;-74
2022/11/23 17:52:33;;;;;;;;;5.00;5.00;;;;;10.72;100.00;100170.34;5046403;28;49884;-79
2022/11/23 17:54:58;;;;;;;;;4.25;4.25;;;;;10.72;100.00;100180.84;5043379;28;49888;-70
2022/11/23 17:57:25;;;;;;;;;3.00;3.00;;;;;10.87;100.00;100208.13;5045285;28;50791;-75
2022/11/23 17:59:52;;;;;;;;;6.75;3.00;;;;;10.89;100.00;100219.50;5055372;28;49512;-71
2022/11/23 18:02:18;;;;;;;;;7.00;5.25;;;;;10.89;100.00;100219.50;5045098;28;49339;-75
2022/11/23 18:04:44;;;;;;;;;5.50;4.50;;;;;10.81;100.00;100210.69;5047335;28;49472;-70
2022/11/23 18:07:14;;;;;;;;;8.25;5.00;;;;;10.85;100.00;100222.97;5050162;28;49641;-74
2022/11/23 18:09:41;;;;;;;;;12.50;10.00;;;;;10.85;100.00;100225.59;5040627;28;49686;-78
2022/11/23 18:12:07;;;;;;;;;9.00;5.00;;;;;10.84;100.00;100228.22;5031520;28;49956;-77
2022/11/23 18:14:32;;;;;;;;;4.00;3.50;;;;;10.77;100.00;100224.63;5051305;28;49647;-77
2022/11/23 18:16:57;;;;;;;;;6.25;4.75;;;;;10.64;100.00;100207.00;5033086;28;51638;-81
2022/11/23 18:19:23;;;;;;;;;6.75;4.25;;;;;10.47;100.00;100179.66;5050762;28;50003;-81
2022/11/23 18:21:49;;;;;;;;;4.25;4.25;;;;;9.81;100.00;100086.13;5032987;28;49811;-85
2022/11/23 18:24:15;;;;;;;;;5.75;5.75;;;;;9.58;100.00;100036.91;5033582;28;50006;-86
2022/11/23 18:26:41;;;;;;;;;6.25;5.25;;;;;10.53;100.00;100203.38;5042463;28;50672;-75
2022/11/23 18:29:06;;;;;;;;;5.25;5.25;;;;;10.13;100.00;100173.06;5058229;28;49658;-76
2022/11/23 18:31:32;;;;;;;;;8.25;4.50;;;;;9.92;100.00;100143.06;5060409;28;49637;-75
2022/11/23 18:33:58;;;;;;;;;5.50;5.25;;;;;10.79;100.00;100280.66;5058388;28;49862;-74
2022/11/23 18:36:24;;;;;;;;;7.75;5.75;;;;;9.79;100.00;100091.34;5045996;28;51547;-74
2022/11/23 18:38:49;;;;;;;;;5.50;5.50;;;;;10.60;100.00;100262.91;5030880;28;49699;-76
2022/11/23 18:41:15;;;;;;;;;5.75;4.75;;;;;9.80;100.00;100100.09;5030714;28;49932;-79
2022/11/23 18:43:42;;;;;;;;;7.75;7.75;;;;;10.78;100.00;100270.16;5031314;28;49779;-78
2022/11/23 18:46:09;;;;;;;;;8.75;5.00;;;;;10.57;100.00;100249.75;5030386;28;49792;-77
2022/11/23 18:48:35;;;;;;;;;8.75;5.75;;;;;10.22;100.00;100205.56;5030771;28;49780;-74
2022/11/23 18:51:02;;;;;;;;;8.50;4.50;;;;;10.72;100.00;100284.09;5028485;28;49890;-78
2022/11/23 18:53:28;;;;;;;;;10.00;7.50;;;;;10.53;100.00;100254.09;5050278;28;49856;-76
2022/11/23 18:55:53;;;;;;;;;11.25;4.50;;;;;9.60;100.00;100116.41;5050246;28;50640;-80
2022/11/23 18:58:19;;;;;;;;;11.25;9.00;;;;;10.70;100.00;100292.78;5031523;28;49738;-79
2022/11/23 19:00:44;;;;;;;;;8.75;7.50;;;;;9.74;100.00;100140.19;5050042;28;49944;-77
2022/11/23 19:03:10;;;;;;;;;7.50;5.75;;;;;10.60;100.00;100290.03;5050080;28;49792;-74